sensor_id;sensor_type;location;lat;lon;timestamp;pressure;altitude;pressure_sealevel;temperature;humidity
77749;BME280;66938;52.084;5.228;2023-08-21T00:00:34;102422.0;;;19.38;80.02
77749;BME280;66938;52.084;5.228;2023-08-21T00:03:48;102432.0;;;19.41;80.06
77749;BME280;66938;52.084;5.228;2023-08-21T00:05:25;102430.0;;;19.37;79.8
77749;BME280;66938;52.084;5.228;2023-08-21T00:07:02;102431.0;;;19.36;79.59
77749;BME280;66938;52.084;5.228;2023-08-21T00:08:38;102432.0;;;19.37;79.86
77749;BME280;66938;52.084;5.228;2023-08-21T00:11:53;102433.99999999999;;;19.36;79.81
77749;BME280;66938;52.084;5.228;2023-08-21T00:13:30;102434.99999999999;;;19.36;79.78
77749;BME280;66938;52.084;5.228;2023-08-21T00:15:08;102434.99999999999;;;19.27;80.42
77749;BME280;66938;52.084;5.228;2023-08-21T00:18:23;102433.0;;;19.27;80.87
77749;BME280;66938;52.084;5.228;2023-08-21T00:20:00;102436.99999999999;;;19.18;81.28
77749;BME280;66938;52.084;5.228;2023-08-21T00:21:37;102438.00000000001;;;19.18;81.24
77749;BME280;66938;52.084;5.228;2023-08-21T00:23:14;102433.99999999999;;;19.25;81.03
77749;BME280;66938;52.084;5.228;2023-08-21T00:26:28;102441.00000000001;;;19.16;81.61
77749;BME280;66938;52.084;5.228;2023-08-21T00:28:05;102443.0;;;19.18;81.47
77749;BME280;66938;52.084;5.228;2023-08-21T00:29:42;102442.0;;;19.18;81.53
77749;BME280;66938;52.084;5.228;2023-08-21T00:32:56;102440.00000000001;;;19.14;81.96
77749;BME280;66938;52.084;5.228;2023-08-21T00:34:33;102440.00000000001;;;19.22;81.47
77749;BME280;66938;52.084;5.228;2023-08-21T00:36:10;102439.00000000001;;;19.29;80.94
77749;BME280;66938;52.084;5.228;2023-08-21T00:37:46;102433.99999999999;;;19.3;80.44
77749;BME280;66938;52.084;5.228;2023-08-21T00:41:00;102433.99999999999;;;19.27;80.91
77749;BME280;66938;52.084;5.228;2023-08-21T00:42:37;102431.0;;;19.11;82.34
77749;BME280;66938;52.084;5.228;2023-08-21T00:45:50;102433.0;;;19.0;82.05
77749;BME280;66938;52.084;5.228;2023-08-21T00:47:27;102430.0;;;19.14;81.94
77749;BME280;66938;52.084;5.228;2023-08-21T00:49:04;102431.0;;;19.22;81.56
77749;BME280;66938;52.084;5.228;2023-08-21T00:52:19;102431.0;;;19.22;80.92
77749;BME280;66938;52.084;5.228;2023-08-21T00:53:56;102424.0;;;19.16;80.99
77749;BME280;66938;52.084;5.228;2023-08-21T00:55:33;102427.0;;;19.23;81.25
77749;BME280;66938;52.084;5.228;2023-08-21T00:57:10;102432.0;;;19.28;80.84
77749;BME280;66938;52.084;5.228;2023-08-21T01:00:27;102432.0;;;19.25;80.8
77749;BME280;66938;52.084;5.228;2023-08-21T01:02:04;102423.0;;;19.27;80.77
77749;BME280;66938;52.084;5.228;2023-08-21T01:03:41;102419.0;;;19.32;80.42
77749;BME280;66938;52.084;5.228;2023-08-21T01:06:56;102418.0;;;19.36;80.14
77749;BME280;66938;52.084;5.228;2023-08-21T01:08:39;102416.00000000001;;;19.39;80.08
77749;BME280;66938;52.084;5.228;2023-08-21T01:10:30;102413.00000000001;;;19.43;80.08
77749;BME280;66938;52.084;5.228;2023-08-21T01:12:23;102411.99999999999;;;19.41;80.48
77749;BME280;66938;52.084;5.228;2023-08-21T01:14:17;102414.00000000001;;;19.47;80.58
77749;BME280;66938;52.084;5.228;2023-08-21T01:16:00;102415.00000000001;;;19.48;80.69
77749;BME280;66938;52.084;5.228;2023-08-21T01:19:24;102415.00000000001;;;19.41;81.03
77749;BME280;66938;52.084;5.228;2023-08-21T01:21:07;102420.0;;;19.16;82.15
77749;BME280;66938;52.084;5.228;2023-08-21T01:22:44;102417.0;;;19.27;81.86
77749;BME280;66938;52.084;5.228;2023-08-21T01:24:20;102420.0;;;19.28;81.64
77749;BME280;66938;52.084;5.228;2023-08-21T01:27:35;102419.0;;;19.2;81.62
77749;BME280;66938;52.084;5.228;2023-08-21T01:29:12;102415.00000000001;;;19.27;81.58
77749;BME280;66938;52.084;5.228;2023-08-21T01:30:51;102422.0;;;19.22;81.38
77749;BME280;66938;52.084;5.228;2023-08-21T01:34:28;102428.0;;;19.25;81.16
77749;BME280;66938;52.084;5.228;2023-08-21T01:36:06;102430.0;;;19.2;80.8
77749;BME280;66938;52.084;5.228;2023-08-21T01:37:43;102429.0;;;19.11;81.55
77749;BME280;66938;52.084;5.228;2023-08-21T01:39:21;102425.0;;;19.18;81.77
77749;BME280;66938;52.084;5.228;2023-08-21T01:42:36;102426.0;;;19.18;82.03
77749;BME280;66938;52.084;5.228;2023-08-21T01:44:13;102423.0;;;19.09;82.03
77749;BME280;66938;52.084;5.228;2023-08-21T01:45:50;102430.0;;;19.09;82.63
77749;BME280;66938;52.084;5.228;2023-08-21T01:47:27;102429.0;;;19.2;82.41
77749;BME280;66938;52.084;5.228;2023-08-21T01:50:41;102428.0;;;19.18;82.66
77749;BME280;66938;52.084;5.228;2023-08-21T01:52:18;102433.0;;;19.22;82.24
77749;BME280;66938;52.084;5.228;2023-08-21T01:53:55;102425.0;;;19.29;82.0
77749;BME280;66938;52.084;5.228;2023-08-21T01:57:08;102424.0;;;19.31;82.02
77749;BME280;66938;52.084;5.228;2023-08-21T01:58:45;102416.00000000001;;;19.27;81.83
77749;BME280;66938;52.084;5.228;2023-08-21T02:00:21;102419.0;;;19.14;82.26
77749;BME280;66938;52.084;5.228;2023-08-21T02:01:59;102424.0;;;19.16;82.68
77749;BME280;66938;52.084;5.228;2023-08-21T02:05:12;102426.0;;;19.18;82.37
77749;BME280;66938;52.084;5.228;2023-08-21T02:06:49;102423.0;;;19.27;81.44
77749;BME280;66938;52.084;5.228;2023-08-21T02:08:31;102424.0;;;19.3;81.45
77749;BME280;66938;52.084;5.228;2023-08-21T02:11:46;102423.0;;;19.32;81.47
77749;BME280;66938;52.084;5.228;2023-08-21T02:13:23;102424.0;;;19.3;81.69
77749;BME280;66938;52.084;5.228;2023-08-21T02:15:00;102421.0;;;19.11;81.94
77749;BME280;66938;52.084;5.228;2023-08-21T02:16:37;102421.0;;;19.0;82.78
77749;BME280;66938;52.084;5.228;2023-08-21T02:19:51;102424.0;;;19.0;82.65
77749;BME280;66938;52.084;5.228;2023-08-21T02:21:27;102427.0;;;19.11;82.12
77749;BME280;66938;52.084;5.228;2023-08-21T02:23:04;102425.0;;;19.07;82.25
77749;BME280;66938;52.084;5.228;2023-08-21T02:26:18;102424.0;;;19.03;82.01
77749;BME280;66938;52.084;5.228;2023-08-21T02:27:54;102426.0;;;19.04;82.24
77749;BME280;66938;52.084;5.228;2023-08-21T02:29:31;102430.0;;;19.0;82.12
77749;BME280;66938;52.084;5.228;2023-08-21T02:32:45;102440.00000000001;;;18.95;82.08
77749;BME280;66938;52.084;5.228;2023-08-21T02:34:22;102440.00000000001;;;19.03;82.17
77749;BME280;66938;52.084;5.228;2023-08-21T02:36:00;102431.0;;;19.11;82.13
77749;BME280;66938;52.084;5.228;2023-08-21T02:37:37;102432.0;;;19.12;82.08
77749;BME280;66938;52.084;5.228;2023-08-21T02:40:50;102434.99999999999;;;19.11;82.23
77749;BME280;66938;52.084;5.228;2023-08-21T02:42:27;102429.0;;;19.03;82.23
77749;BME280;66938;52.084;5.228;2023-08-21T02:44:05;102429.0;;;18.95;82.47
77749;BME280;66938;52.084;5.228;2023-08-21T02:47:18;102426.0;;;18.84;82.9
77749;BME280;66938;52.084;5.228;2023-08-21T02:48:55;102430.0;;;18.84;82.74
77749;BME280;66938;52.084;5.228;2023-08-21T02:50:32;102431.0;;;18.78;82.97
77749;BME280;66938;52.084;5.228;2023-08-21T02:53:45;102431.0;;;18.81;83.55
77749;BME280;66938;52.084;5.228;2023-08-21T02:55:21;102433.0;;;18.73;83.18
77749;BME280;66938;52.084;5.228;2023-08-21T02:56:59;102430.0;;;18.84;82.99
77749;BME280;66938;52.084;5.228;2023-08-21T02:58:36;102424.0;;;18.91;82.73
77749;BME280;66938;52.084;5.228;2023-08-21T03:01:50;102422.0;;;18.95;82.66
77749;BME280;66938;52.084;5.228;2023-08-21T03:03:27;102425.0;;;18.95;82.31
77749;BME280;66938;52.084;5.228;2023-08-21T03:05:05;102430.0;;;18.96;82.0
77749;BME280;66938;52.084;5.228;2023-08-21T03:08:18;102429.0;;;18.84;82.46
77749;BME280;66938;52.084;5.228;2023-08-21T03:09:55;102428.0;;;18.78;82.45
77749;BME280;66938;52.084;5.228;2023-08-21T03:11:32;102433.0;;;18.86;82.31
77749;BME280;66938;52.084;5.228;2023-08-21T03:13:09;102432.0;;;18.86;82.41
77749;BME280;66938;52.084;5.228;2023-08-21T03:16:22;102434.99999999999;;;18.75;82.99
77749;BME280;66938;52.084;5.228;2023-08-21T03:18:00;102436.99999999999;;;18.8;83.07
77749;BME280;66938;52.084;5.228;2023-08-21T03:19:37;102433.0;;;18.88;82.81
77749;BME280;66938;52.084;5.228;2023-08-21T03:22:51;102433.99999999999;;;18.86;83.12
77749;BME280;66938;52.084;5.228;2023-08-21T03:24:28;102432.0;;;18.95;82.79
77749;BME280;66938;52.084;5.228;2023-08-21T03:26:05;102433.99999999999;;;19.0;82.66
77749;BME280;66938;52.084;5.228;2023-08-21T03:29:19;102429.0;;;18.93;82.67
77749;BME280;66938;52.084;5.228;2023-08-21T03:30:55;102429.0;;;18.86;83.18
77749;BME280;66938;52.084;5.228;2023-08-21T03:32:32;102428.0;;;18.87;83.18
77749;BME280;66938;52.084;5.228;2023-08-21T03:34:09;102424.0;;;18.89;83.47
77749;BME280;66938;52.084;5.228;2023-08-21T03:37:23;102427.0;;;18.88;84.02
77749;BME280;66938;52.084;5.228;2023-08-21T03:39:01;102430.0;;;18.87;84.28
77749;BME280;66938;52.084;5.228;2023-08-21T03:40:39;102426.0;;;18.91;84.29
77749;BME280;66938;52.084;5.228;2023-08-21T03:43:54;102421.0;;;18.89;84.33
77749;BME280;66938;52.084;5.228;2023-08-21T03:45:30;102420.0;;;18.84;84.03
77749;BME280;66938;52.084;5.228;2023-08-21T03:47:08;102424.0;;;18.95;83.89
77749;BME280;66938;52.084;5.228;2023-08-21T03:48:45;102420.0;;;19.0;84.06
77749;BME280;66938;52.084;5.228;2023-08-21T03:51:59;102422.0;;;19.0;83.09
77749;BME280;66938;52.084;5.228;2023-08-21T03:53:36;102416.00000000001;;;19.09;83.0
77749;BME280;66938;52.084;5.228;2023-08-21T03:55:13;102419.0;;;19.14;82.2
77749;BME280;66938;52.084;5.228;2023-08-21T03:58:27;102419.0;;;19.11;82.37
77749;BME280;66938;52.084;5.228;2023-08-21T04:00:06;102422.0;;;19.09;82.5
77749;BME280;66938;52.084;5.228;2023-08-21T04:01:43;102427.0;;;19.0;83.3
77749;BME280;66938;52.084;5.228;2023-08-21T04:03:21;102421.0;;;19.05;83.23
77749;BME280;66938;52.084;5.228;2023-08-21T04:06:35;102422.0;;;19.05;83.36
77749;BME280;66938;52.084;5.228;2023-08-21T04:08:12;102424.0;;;18.97;83.21
77749;BME280;66938;52.084;5.228;2023-08-21T04:09:50;102423.0;;;18.95;82.99
77749;BME280;66938;52.084;5.228;2023-08-21T04:13:05;102425.0;;;18.95;83.07
77749;BME280;66938;52.084;5.228;2023-08-21T04:14:42;102430.0;;;19.02;82.32
77749;BME280;66938;52.084;5.228;2023-08-21T04:16:18;102431.0;;;18.95;82.38
77749;BME280;66938;52.084;5.228;2023-08-21T04:19:32;102427.0;;;18.91;83.06
77749;BME280;66938;52.084;5.228;2023-08-21T04:21:10;102432.0;;;18.89;83.65
77749;BME280;66938;52.084;5.228;2023-08-21T04:22:47;102433.0;;;18.86;83.84
77749;BME280;66938;52.084;5.228;2023-08-21T04:24:24;102436.99999999999;;;18.81;83.42
77749;BME280;66938;52.084;5.228;2023-08-21T04:27:38;102439.00000000001;;;18.68;84.7
77749;BME280;66938;52.084;5.228;2023-08-21T04:29:15;102439.00000000001;;;18.71;84.79
77749;BME280;66938;52.084;5.228;2023-08-21T04:30:52;102434.99999999999;;;18.77;84.58
77749;BME280;66938;52.084;5.228;2023-08-21T04:34:06;102439.00000000001;;;18.75;84.25
77749;BME280;66938;52.084;5.228;2023-08-21T04:35:43;102442.0;;;18.75;83.83
77749;BME280;66938;52.084;5.228;2023-08-21T04:37:20;102444.0;;;18.68;83.82
77749;BME280;66938;52.084;5.228;2023-08-21T04:38:57;102442.0;;;18.7;83.98
77749;BME280;66938;52.084;5.228;2023-08-21T04:42:11;102442.0;;;18.66;84.27
77749;BME280;66938;52.084;5.228;2023-08-21T04:43:48;102439.00000000001;;;18.53;84.64
77749;BME280;66938;52.084;5.228;2023-08-21T04:45:25;102442.0;;;18.66;84.48
77749;BME280;66938;52.084;5.228;2023-08-21T04:48:57;102436.99999999999;;;18.56;84.96
77749;BME280;66938;52.084;5.228;2023-08-21T04:50:34;102442.0;;;18.61;84.94
77749;BME280;66938;52.084;5.228;2023-08-21T04:52:11;102436.99999999999;;;18.59;85.12
77749;BME280;66938;52.084;5.228;2023-08-21T04:53:48;102433.99999999999;;;18.53;85.56
77749;BME280;66938;52.084;5.228;2023-08-21T04:57:02;102434.99999999999;;;18.56;85.36
77749;BME280;66938;52.084;5.228;2023-08-21T04:58:38;102441.00000000001;;;18.64;84.91
77749;BME280;66938;52.084;5.228;2023-08-21T05:00:16;102447.0;;;18.7;84.32
77749;BME280;66938;52.084;5.228;2023-08-21T05:01:53;102447.0;;;18.73;83.95
77749;BME280;66938;52.084;5.228;2023-08-21T05:05:07;102456.0;;;18.73;83.73
77749;BME280;66938;52.084;5.228;2023-08-21T05:06:44;102453.0;;;18.68;84.07
77749;BME280;66938;52.084;5.228;2023-08-21T05:08:25;102447.0;;;18.62;84.87
77749;BME280;66938;52.084;5.228;2023-08-21T05:11:41;102448.0;;;18.71;84.71
77749;BME280;66938;52.084;5.228;2023-08-21T05:13:17;102447.0;;;18.77;84.32
77749;BME280;66938;52.084;5.228;2023-08-21T05:14:55;102442.0;;;18.82;84.14
77749;BME280;66938;52.084;5.228;2023-08-21T05:16:32;102440.00000000001;;;18.84;83.8
77749;BME280;66938;52.084;5.228;2023-08-21T05:19:45;102447.0;;;18.81;83.92
77749;BME280;66938;52.084;5.228;2023-08-21T05:21:23;102447.0;;;18.71;84.18
77749;BME280;66938;52.084;5.228;2023-08-21T05:23:00;102447.0;;;18.71;84.08
77749;BME280;66938;52.084;5.228;2023-08-21T05:26:14;102456.0;;;18.66;84.93
77749;BME280;66938;52.084;5.228;2023-08-21T05:27:51;102455.0;;;18.59;85.62
77749;BME280;66938;52.084;5.228;2023-08-21T05:29:28;102454.0;;;18.66;85.6
77749;BME280;66938;52.084;5.228;2023-08-21T05:32:42;102454.0;;;18.81;84.8
77749;BME280;66938;52.084;5.228;2023-08-21T05:34:19;102452.0;;;18.88;84.66
77749;BME280;66938;52.084;5.228;2023-08-21T05:35:56;102455.0;;;18.86;84.57
77749;BME280;66938;52.084;5.228;2023-08-21T05:37:33;102456.0;;;18.79;84.36
77749;BME280;66938;52.084;5.228;2023-08-21T05:40:48;102457.0;;;18.82;84.3
77749;BME280;66938;52.084;5.228;2023-08-21T05:42:26;102459.99999999999;;;18.8;84.26
77749;BME280;66938;52.084;5.228;2023-08-21T05:44:02;102461.99999999999;;;18.79;84.37
77749;BME280;66938;52.084;5.228;2023-08-21T05:47:17;102465.00000000001;;;18.78;84.4
77749;BME280;66938;52.084;5.228;2023-08-21T05:48:54;102466.00000000001;;;18.91;84.32
77749;BME280;66938;52.084;5.228;2023-08-21T05:50:30;102463.00000000001;;;18.95;84.52
77749;BME280;66938;52.084;5.228;2023-08-21T05:52:08;102458.0;;;18.97;84.4
77749;BME280;66938;52.084;5.228;2023-08-21T05:55:23;102458.0;;;18.96;84.55
77749;BME280;66938;52.084;5.228;2023-08-21T05:57:02;102465.00000000001;;;18.98;84.51
77749;BME280;66938;52.084;5.228;2023-08-21T05:58:39;102465.00000000001;;;18.97;84.91
77749;BME280;66938;52.084;5.228;2023-08-21T06:01:54;102466.00000000001;;;19.04;85.24
77749;BME280;66938;52.084;5.228;2023-08-21T06:03:31;102464.00000000001;;;19.16;84.76
77749;BME280;66938;52.084;5.228;2023-08-21T06:05:09;102468.0;;;19.23;84.45
77749;BME280;66938;52.084;5.228;2023-08-21T06:06:46;102466.00000000001;;;19.28;84.31
77749;BME280;66938;52.084;5.228;2023-08-21T06:10:00;102459.99999999999;;;19.37;83.58
77749;BME280;66938;52.084;5.228;2023-08-21T06:11:37;102453.0;;;19.45;83.57
77749;BME280;66938;52.084;5.228;2023-08-21T06:13:14;102454.0;;;19.47;83.76
77749;BME280;66938;52.084;5.228;2023-08-21T06:16:29;102458.0;;;19.53;83.45
77749;BME280;66938;52.084;5.228;2023-08-21T06:18:07;102456.0;;;19.54;83.35
77749;BME280;66938;52.084;5.228;2023-08-21T06:19:44;102458.0;;;19.52;83.37
77749;BME280;66938;52.084;5.228;2023-08-21T06:22:58;102465.00000000001;;;19.47;83.24
77749;BME280;66938;52.084;5.228;2023-08-21T06:24:35;102461.99999999999;;;19.46;83.64
77749;BME280;66938;52.084;5.228;2023-08-21T06:26:12;102461.99999999999;;;19.46;84.05
77749;BME280;66938;52.084;5.228;2023-08-21T06:27:49;102467.0;;;19.47;84.15
77749;BME280;66938;52.084;5.228;2023-08-21T06:31:03;102465.00000000001;;;19.52;84.11
77749;BME280;66938;52.084;5.228;2023-08-21T06:32:40;102466.00000000001;;;19.57;84.13
77749;BME280;66938;52.084;5.228;2023-08-21T06:34:17;102467.0;;;19.64;84.26
77749;BME280;66938;52.084;5.228;2023-08-21T06:37:31;102471.0;;;19.71;84.27
77749;BME280;66938;52.084;5.228;2023-08-21T06:39:09;102473.0;;;19.73;84.15
77749;BME280;66938;52.084;5.228;2023-08-21T06:40:46;102473.0;;;19.79;84.08
77749;BME280;66938;52.084;5.228;2023-08-21T06:42:23;102471.0;;;19.82;84.25
77749;BME280;66938;52.084;5.228;2023-08-21T06:45:37;102475.0;;;19.91;84.19
77749;BME280;66938;52.084;5.228;2023-08-21T06:47:14;102476.0;;;19.97;84.61
77749;BME280;66938;52.084;5.228;2023-08-21T06:48:51;102473.0;;;20.04;84.38
77749;BME280;66938;52.084;5.228;2023-08-21T06:52:05;102477.0;;;20.14;83.84
77749;BME280;66938;52.084;5.228;2023-08-21T06:53:42;102476.0;;;20.25;82.0
77749;BME280;66938;52.084;5.228;2023-08-21T06:55:19;102476.0;;;20.39;82.97
77749;BME280;66938;52.084;5.228;2023-08-21T06:56:57;102469.0;;;20.49;82.45
77749;BME280;66938;52.084;5.228;2023-08-21T07:00:12;102472.0;;;20.62;82.36
77749;BME280;66938;52.084;5.228;2023-08-21T07:01:49;102474.0;;;20.7;81.94
77749;BME280;66938;52.084;5.228;2023-08-21T07:03:26;102476.0;;;20.74;81.97
77749;BME280;66938;52.084;5.228;2023-08-21T07:06:41;102473.0;;;20.81;81.22
77749;BME280;66938;52.084;5.228;2023-08-21T07:08:18;102472.0;;;20.87;80.94
77749;BME280;66938;52.084;5.228;2023-08-21T07:09:55;102474.0;;;20.93;80.83
77749;BME280;66938;52.084;5.228;2023-08-21T07:13:09;102472.0;;;20.97;79.36
77749;BME280;66938;52.084;5.228;2023-08-21T07:14:46;102466.00000000001;;;21.01;78.2
77749;BME280;66938;52.084;5.228;2023-08-21T07:16:23;102469.0;;;21.07;77.55
77749;BME280;66938;52.084;5.228;2023-08-21T07:18:00;102472.0;;;21.1;76.66
77749;BME280;66938;52.084;5.228;2023-08-21T07:21:14;102478.0;;;21.15;76.39
77749;BME280;66938;52.084;5.228;2023-08-21T07:22:51;102476.0;;;21.23;75.7
77749;BME280;66938;52.084;5.228;2023-08-21T07:24:28;102474.0;;;21.28;76.02
77749;BME280;66938;52.084;5.228;2023-08-21T07:27:42;102479.0;;;21.35;74.42
77749;BME280;66938;52.084;5.228;2023-08-21T07:29:19;102482.0;;;21.39;74.69
77749;BME280;66938;52.084;5.228;2023-08-21T07:30:56;102486.99999999999;;;21.44;75.27
77749;BME280;66938;52.084;5.228;2023-08-21T07:32:34;102484.99999999999;;;21.52;72.33
77749;BME280;66938;52.084;5.228;2023-08-21T07:35:56;102483.99999999999;;;21.58;67.66
77749;BME280;66938;52.084;5.228;2023-08-21T07:37:34;102488.00000000001;;;21.64;67.8
77749;BME280;66938;52.084;5.228;2023-08-21T07:39:11;102486.99999999999;;;21.73;71.7
77749;BME280;66938;52.084;5.228;2023-08-21T07:42:24;102489.00000000001;;;21.8;68.89
77749;BME280;66938;52.084;5.228;2023-08-21T07:44:02;102490.00000000001;;;21.85;69.37
77749;BME280;66938;52.084;5.228;2023-08-21T07:45:38;102490.00000000001;;;21.9;69.78
77749;BME280;66938;52.084;5.228;2023-08-21T07:47:16;102491.00000000001;;;21.91;69.03
77749;BME280;66938;52.084;5.228;2023-08-21T07:50:30;102492.0;;;22.01;68.58
77749;BME280;66938;52.084;5.228;2023-08-21T07:52:08;102494.0;;;22.01;70.0
77749;BME280;66938;52.084;5.228;2023-08-21T07:53:45;102495.0;;;22.08;69.31
77749;BME280;66938;52.084;5.228;2023-08-21T07:56:59;102493.0;;;22.17;68.11
77749;BME280;66938;52.084;5.228;2023-08-21T07:58:37;102493.0;;;22.26;68.39
77749;BME280;66938;52.084;5.228;2023-08-21T08:00:14;102494.0;;;22.31;68.06
77749;BME280;66938;52.084;5.228;2023-08-21T08:01:52;102499.0;;;22.36;69.44
77749;BME280;66938;52.084;5.228;2023-08-21T08:05:07;102498.0;;;22.41;68.8
77749;BME280;66938;52.084;5.228;2023-08-21T08:06:44;102488.00000000001;;;22.41;68.58
77749;BME280;66938;52.084;5.228;2023-08-21T08:08:23;102489.00000000001;;;22.48;68.69
77749;BME280;66938;52.084;5.228;2023-08-21T08:11:39;102492.0;;;22.51;68.06
77749;BME280;66938;52.084;5.228;2023-08-21T08:13:16;102492.0;;;22.54;66.41
77749;BME280;66938;52.084;5.228;2023-08-21T08:14:53;102494.0;;;22.63;67.41
77749;BME280;66938;52.084;5.228;2023-08-21T08:16:30;102499.0;;;22.71;66.81
77749;BME280;66938;52.084;5.228;2023-08-21T08:19:48;102508.99999999999;;;22.65;66.83
77749;BME280;66938;52.084;5.228;2023-08-21T08:21:25;102508.0;;;22.65;65.17
77749;BME280;66938;52.084;5.228;2023-08-21T08:23:03;102509.99999999999;;;22.67;67.33
77749;BME280;66938;52.084;5.228;2023-08-21T08:26:17;102502.0;;;22.61;66.69
77749;BME280;66938;52.084;5.228;2023-08-21T08:27:54;102499.0;;;22.74;67.52
77749;BME280;66938;52.084;5.228;2023-08-21T08:29:32;102494.0;;;22.68;66.14
77749;BME280;66938;52.084;5.228;2023-08-21T08:31:14;102495.0;;;22.78;66.94
77749;BME280;66938;52.084;5.228;2023-08-21T08:34:29;102496.0;;;22.8;65.91
77749;BME280;66938;52.084;5.228;2023-08-21T08:36:06;102497.0;;;22.85;65.1
77749;BME280;66938;52.084;5.228;2023-08-21T08:37:44;102499.0;;;22.87;66.77
77749;BME280;66938;52.084;5.228;2023-08-21T08:41:01;102498.0;;;22.8;65.48
77749;BME280;66938;52.084;5.228;2023-08-21T08:42:39;102503.0;;;22.92;64.56
77749;BME280;66938;52.084;5.228;2023-08-21T08:44:16;102506.0;;;22.96;64.22
77749;BME280;66938;52.084;5.228;2023-08-21T08:45:54;102509.99999999999;;;22.98;62.66
77749;BME280;66938;52.084;5.228;2023-08-21T08:49:12;102513.00000000001;;;23.1;63.8
77749;BME280;66938;52.084;5.228;2023-08-21T08:50:50;102517.0;;;23.2;63.72
77749;BME280;66938;52.084;5.228;2023-08-21T08:52:30;102508.99999999999;;;23.21;61.43
77749;BME280;66938;52.084;5.228;2023-08-21T08:54:09;102505.0;;;23.29;62.77
77749;BME280;66938;52.084;5.228;2023-08-21T08:57:25;102496.0;;;23.28;60.34
77749;BME280;66938;52.084;5.228;2023-08-21T08:59:03;102495.0;;;23.39;60.95
77749;BME280;66938;52.084;5.228;2023-08-21T09:00:40;102498.0;;;23.51;61.52
77749;BME280;66938;52.084;5.228;2023-08-21T09:03:55;102499.0;;;23.5;59.72
77749;BME280;66938;52.084;5.228;2023-08-21T09:05:33;102493.0;;;23.55;59.0
77749;BME280;66938;52.084;5.228;2023-08-21T09:07:11;102493.0;;;23.59;58.99
77749;BME280;66938;52.084;5.228;2023-08-21T09:08:56;102493.0;;;23.54;59.24
77749;BME280;66938;52.084;5.228;2023-08-21T09:12:14;102495.0;;;23.58;59.04
77749;BME280;66938;52.084;5.228;2023-08-21T09:13:52;102492.0;;;23.6;57.26
77749;BME280;66938;52.084;5.228;2023-08-21T09:15:30;102498.0;;;23.66;58.23
77749;BME280;66938;52.084;5.228;2023-08-21T09:17:08;102492.0;;;23.73;59.33
77749;BME280;66938;52.084;5.228;2023-08-21T09:20:24;102494.0;;;23.8;58.72
77749;BME280;66938;52.084;5.228;2023-08-21T09:22:08;102493.0;;;23.79;58.08
77749;BME280;66938;52.084;5.228;2023-08-21T09:23:48;102492.0;;;23.88;58.77
77749;BME280;66938;52.084;5.228;2023-08-21T09:25:27;102493.0;;;23.82;58.45
77749;BME280;66938;52.084;5.228;2023-08-21T09:28:51;102489.00000000001;;;23.91;57.51
77749;BME280;66938;52.084;5.228;2023-08-21T09:30:28;102492.0;;;24.03;58.08
77749;BME280;66938;52.084;5.228;2023-08-21T09:32:05;102491.00000000001;;;24.02;57.24
77749;BME280;66938;52.084;5.228;2023-08-21T09:35:20;102488.00000000001;;;24.06;56.68
77749;BME280;66938;52.084;5.228;2023-08-21T09:36:58;102489.00000000001;;;24.14;57.32
77749;BME280;66938;52.084;5.228;2023-08-21T09:38:38;102484.99999999999;;;24.02;56.01
77749;BME280;66938;52.084;5.228;2023-08-21T09:40:16;102483.99999999999;;;24.1;56.09
77749;BME280;66938;52.084;5.228;2023-08-21T09:43:41;102480.0;;;24.19;56.65
77749;BME280;66938;52.084;5.228;2023-08-21T09:45:20;102480.0;;;24.12;55.93
77749;BME280;66938;52.084;5.228;2023-08-21T09:46:57;102473.0;;;24.2;54.67
77749;BME280;66938;52.084;5.228;2023-08-21T09:48:35;102477.0;;;24.33;55.79
77749;BME280;66938;52.084;5.228;2023-08-21T09:51:50;102468.0;;;24.23;54.21
77749;BME280;66938;52.084;5.228;2023-08-21T09:53:30;102469.0;;;24.18;54.93
77749;BME280;66938;52.084;5.228;2023-08-21T09:55:07;102470.0;;;24.35;55.28
77749;BME280;66938;52.084;5.228;2023-08-21T09:58:24;102476.0;;;24.36;55.44
77749;BME280;66938;52.084;5.228;2023-08-21T10:00:03;102472.0;;;24.33;53.53
77749;BME280;66938;52.084;5.228;2023-08-21T10:01:40;102473.0;;;24.42;54.42
77749;BME280;66938;52.084;5.228;2023-08-21T10:03:20;102475.0;;;24.42;54.6
77749;BME280;66938;52.084;5.228;2023-08-21T10:06:36;102470.0;;;24.5;54.82
77749;BME280;66938;52.084;5.228;2023-08-21T10:08:16;102467.0;;;24.51;53.25
77749;BME280;66938;52.084;5.228;2023-08-21T10:09:56;102467.0;;;24.61;55.14
77749;BME280;66938;52.084;5.228;2023-08-21T10:11:33;102464.00000000001;;;24.65;53.77
77749;BME280;66938;52.084;5.228;2023-08-21T10:14:48;102459.99999999999;;;24.71;54.54
77749;BME280;66938;52.084;5.228;2023-08-21T10:16:25;102458.0;;;24.85;54.35
77749;BME280;66938;52.084;5.228;2023-08-21T10:18:18;102453.0;;;24.87;53.31
77749;BME280;66938;52.084;5.228;2023-08-21T10:19:55;102457.0;;;24.86;53.76
77749;BME280;66938;52.084;5.228;2023-08-21T10:23:24;102450.0;;;24.91;54.44
77749;BME280;66938;52.084;5.228;2023-08-21T10:25:02;102450.0;;;24.87;53.79
77749;BME280;66938;52.084;5.228;2023-08-21T10:26:39;102454.0;;;24.94;54.29
77749;BME280;66938;52.084;5.228;2023-08-21T10:28:16;102458.0;;;24.91;52.66
77749;BME280;66938;52.084;5.228;2023-08-21T10:31:35;102459.99999999999;;;25.0;52.86
77749;BME280;66938;52.084;5.228;2023-08-21T10:33:12;102465.00000000001;;;25.06;52.5
77749;BME280;66938;52.084;5.228;2023-08-21T10:34:52;102463.00000000001;;;25.09;52.87
77749;BME280;66938;52.084;5.228;2023-08-21T10:39:13;102463.00000000001;;;25.23;53.51
77749;BME280;66938;52.084;5.228;2023-08-21T10:41:07;102467.0;;;25.24;52.06
77749;BME280;66938;52.084;5.228;2023-08-21T10:44:54;102465.00000000001;;;25.36;52.79